John Quigg — WDB9828 — position and weather

sailwx.info

Track history (hours):
 
Tides and Currents Weather Stations Pressure Air Temp Water Temp Dewpoint Dewpoint Depression Visibility Wind Speed Wind Dir Waves Ship Positions

John Quigg

Owner: Harley Marine Services, Inc, Seattle, WA. More information available from US FCC via Universal Licensing System and Coast Guard Vessel Documentation Center.

Last reported at 2016-Jul-25 04:33 UTC. Time now 2016-Jul-25 06:15 UTC.
Position N 33°44' W 118°16'.

Length 27 m.

MMSI: 365934954.

Date/timePositionNaut miles runAvg speedWind from/ knotsBaromVisibWave heightAir tempDewpointWater temp
2016-Jul-25 04:33N 33°44' W 118°16'2 1.5
2016-Jul-25 03:33N 33°43' W 118°14'0 0.0
2016-Jul-25 02:30N 33°43' W 118°14'1 1.2
2016-Jul-25 01:33N 33°44' W 118°15'2 1.8
2016-Jul-25 00:33N 33°45' W 118°16'2 1.8
2016-Jul-24 23:33N 33°43' W 118°16'1 0.6
2016-Jul-24 22:33N 33°44' W 118°16'2 0.8
2016-Jul-24 20:28N 33°43' W 118°14'2 0.3
2016-Jul-24 15:21N 33°44' W 118°16'2 2.1
2016-Jul-24 14:28N 33°44' W 118°13'1 1.1
2016-Jul-24 13:26N 33°43' W 118°14'1 0.5
2016-Jul-24 10:14N 33°44' W 118°16'0 0.0
2016-Jul-24 09:33N 33°44' W 118°16'0 0.0
2016-Jul-24 08:32N 33°44' W 118°16'3 0.7
2016-Jul-24 04:27N 33°44' W 118°12'3 0.7
2016-Jul-24 00:07N 33°44' W 118°16'1 1.5
2016-Jul-23 23:32N 33°44' W 118°17'0 0.4
2016-Jul-23 22:26N 33°44' W 118°16'3 3.3
2016-Jul-23 21:32N 33°44' W 118°13'2 2.1
2016-Jul-23 20:26N 33°43' W 118°16'0 0.4
2016-Jul-23 19:33N 33°44' W 118°16'0 0.0
2016-Jul-23 18:33N 33°44' W 118°16'0 0.0
2016-Jul-23 17:33N 33°44' W 118°16'0 0.1
2016-Jul-23 16:33N 33°44' W 118°16'0 0.3
2016-Jul-23 15:33N 33°44' W 118°16'2 1.7
2016-Jul-23 14:33N 33°45' W 118°16'0 0.0
2016-Jul-23 13:32N 33°45' W 118°16'0 0.1
2016-Jul-23 12:21N 33°45' W 118°16'1 0.6
2016-Jul-23 11:33N 33°45' W 118°16'0 0.0
2016-Jul-23 10:29N 33°45' W 118°16'2 1.7
2016-Jul-23 09:31N 33°44' W 118°16'0 0.1
2016-Jul-23 07:33N 33°44' W 118°16'3 0.7
2016-Jul-23 02:29N 33°44' W 118°12'2 1.6
2016-Jul-23 01:26N 33°45' W 118°13'3 0.4
2016-Jul-22 19:32N 33°44' W 118°16'0 0.1
2016-Jul-22 18:32N 33°44' W 118°16'0 0.0
2016-Jul-22 17:32N 33°44' W 118°16'0 0.0
2016-Jul-22 16:33N 33°44' W 118°16'0 0.0
2016-Jul-22 15:33N 33°44' W 118°16'0 0.0
2016-Jul-22 14:32N 33°44' W 118°16'0 0.0
2016-Jul-22 13:33N 33°44' W 118°16'4 4.0
2016-Jul-22 12:33N 33°44' W 118°11'1 0.5
2016-Jul-22 11:11N 33°43' W 118°11'4 5.7
2016-Jul-22 10:30N 33°43' W 118°16'1 0.9
2016-Jul-22 09:33N 33°44' W 118°17'2 2.3
2016-Jul-22 08:32N 33°46' W 118°15'2 2.0
2016-Jul-22 07:31N 33°45' W 118°13'2 0.8
2016-Jul-22 04:25N 33°44' W 118°16'2 0.8
2016-Jul-22 01:30N 33°45' W 118°13'1 0.9
2016-Jul-22 00:33N 33°44' W 118°12'1 1.2
2016-Jul-21 23:20N 33°43' W 118°14'2 2.1
2016-Jul-21 22:31N 33°44' W 118°16'0 0.0
2016-Jul-21 21:29N 33°44' W 118°16'0 0.0
2016-Jul-21 20:30N 33°44' W 118°16'0 0.0
2016-Jul-21 19:33N 33°44' W 118°16'0 0.0
2016-Jul-21 18:33N 33°44' W 118°16'0 0.0
2016-Jul-21 17:33N 33°44' W 118°16'0 0.0
2016-Jul-21 16:32N 33°44' W 118°16'1 0.6
2016-Jul-21 15:33N 33°44' W 118°15'1 0.7
2016-Jul-21 14:33N 33°44' W 118°16'2 2.3
2016-Jul-21 13:33N 33°46' W 118°15'1 1.1
2016-Jul-21 12:33N 33°46' W 118°13'3 2.3
2016-Jul-21 11:17N 33°44' W 118°12'3 4.5
2016-Jul-21 10:33N 33°44' W 118°16'0 0.0
2016-Jul-21 09:33N 33°44' W 118°16'0 0.0
2016-Jul-21 08:33N 33°44' W 118°16'0 0.0
2016-Jul-21 07:33N 33°44' W 118°16'0 0.0
2016-Jul-21 06:33N 33°44' W 118°16'0 0.0
2016-Jul-21 05:33N 33°44' W 118°16'1 1.2
2016-Jul-21 04:33N 33°43' W 118°15'3 2.7
2016-Jul-21 03:30N 33°45' W 118°12'2 1.4
2016-Jul-21 02:18N 33°47' W 118°13'3 3.3
2016-Jul-21 01:31N 33°46' W 118°16'0 0.1
2016-Jul-21 00:26N 33°45' W 118°16'2 1.9
2016-Jul-20 23:33N 33°44' W 118°16'1 1.3
2016-Jul-20 22:33N 33°43' W 118°15'1 1.3
2016-Jul-20 21:33N 33°44' W 118°16'0 0.0
2016-Jul-20 20:24N 33°44' W 118°16'0 0.0
2016-Jul-20 19:33N 33°44' W 118°16'0 0.0
2016-Jul-20 18:12N 33°44' W 118°16'2 2.4
2016-Jul-20 17:31N 33°44' W 118°14'3 2.5
2016-Jul-20 16:26N 33°46' W 118°13'1 0.9
2016-Jul-20 15:29N 33°45' W 118°13'1 1.3
2016-Jul-20 14:32N 33°46' W 118°15'2 2.4
2016-Jul-20 13:32N 33°44' W 118°16'0 0.1
2016-Jul-20 12:33N 33°44' W 118°16'2 0.6
2016-Jul-20 09:30N 33°46' W 118°15'0 0.1
2016-Jul-20 08:32N 33°46' W 118°16'1 1.4
2016-Jul-20 07:33N 33°45' W 118°16'1 1.0
2016-Jul-20 06:33N 33°44' W 118°16'0 0.0
2016-Jul-20 05:33N 33°44' W 118°16'0 0.0
2016-Jul-20 04:33N 33°44' W 118°16'0 0.0
2016-Jul-20 03:33N 33°44' W 118°16'3 2.7
2016-Jul-20 02:33N 33°44' W 118°12'3 3.3
2016-Jul-20 01:33N 33°45' W 118°16'1 0.8
2016-Jul-20 00:28N 33°46' W 118°16'2 2.7
2016-Jul-19 23:33N 33°43' W 118°16'1 1.1
2016-Jul-19 22:34N 33°43' W 118°15'1 1.4
2016-Jul-19 21:33N 33°44' W 118°16'0 0.0
2016-Jul-19 20:33N 33°44' W 118°16'0 0.0
2016-Jul-19 19:33N 33°44' W 118°16'0 0.0
2016-Jul-19 18:33N 33°44' W 118°16'0 0.0
2016-Jul-19 17:33N 33°44' W 118°16'0 0.0
2016-Jul-19 16:29N 33°44' W 118°16'2 0.5
2016-Jul-19 12:17N 33°45' W 118°14'3 3.8
2016-Jul-19 11:32N 33°43' W 118°11'4 3.9
2016-Jul-19 10:33N 33°44' W 118°16'0 0.0
2016-Jul-19 09:33N 33°44' W 118°16'0 0.0
2016-Jul-19 08:31N 33°44' W 118°16'0 0.0
2016-Jul-19 07:33N 33°44' W 118°16'3 0.6
2016-Jul-19 03:21N 33°45' W 118°13'0 0.0
2016-Jul-19 02:33N 33°45' W 118°13'0 0.0
2016-Jul-19 01:33N 33°45' W 118°13'2 1.8
2016-Jul-19 00:33N 33°44' W 118°11'1 0.5
2016-Jul-18 23:32N 33°44' W 118°12'2 2.2
2016-Jul-18 22:33N 33°43' W 118°14'2 1.6
2016-Jul-18 21:30N 33°44' W 118°12'1 0.7
2016-Jul-18 20:33N 33°44' W 118°12'3 0.4
2016-Jul-18 13:08N 33°44' W 118°16'0 0.0
2016-Jul-18 11:28N 33°44' W 118°16'0 0.0
2016-Jul-18 10:12N 33°44' W 118°16'0 0.0
2016-Jul-18 09:14N 33°44' W 118°16'0 0.0
2016-Jul-18 07:33N 33°44' W 118°16'0 0.0
2016-Jul-18 04:08N 33°44' W 118°16'0 0.0
2016-Jul-18 03:16N 33°44' W 118°16'0 0.0
2016-Jul-18 02:33N 33°44' W 118°16'1 1.1
2016-Jul-18 01:33N 33°45' W 118°16'2 1.1
2016-Jul-17 23:20N 33°43' W 118°14'2 2.4
2016-Jul-17 22:19N 33°45' W 118°13'3 0.3
2016-Jul-17 12:25N 33°43' W 118°16'2 2.0
2016-Jul-17 11:24N 33°45' W 118°16'2 2.6
2016-Jul-17 10:32N 33°43' W 118°15'1 0.1
2016-Jul-17 02:16N 33°43' W 118°14'0 0.4
2016-Jul-17 01:31N 33°43' W 118°14'2 1.7
2016-Jul-17 00:33N 33°44' W 118°16'0 0.0
2016-Jul-16 23:32N 33°44' W 118°16'0 0.0
2016-Jul-16 17:08N 33°44' W 118°16'0 0.0
2016-Jul-16 16:14N 33°44' W 118°16'2 1.8
2016-Jul-16 15:18N 33°43' W 118°14'0 0.1
2016-Jul-16 10:25N 33°43' W 118°14'1 1.6
2016-Jul-16 09:33N 33°44' W 118°16'0 0.0
2016-Jul-16 08:22N 33°44' W 118°16'0 0.0
2016-Jul-16 07:30N 33°44' W 118°16'0 0.0
2016-Jul-16 06:24N 33°44' W 118°16'3 0.9
2016-Jul-16 03:22N 33°45' W 118°13'0 0.0
2016-Jul-16 02:31N 33°45' W 118°13'1 0.9
2016-Jul-16 01:32N 33°44' W 118°14'2 1.9
2016-Jul-16 00:33N 33°44' W 118°16'0 0.0
2016-Jul-15 22:31N 33°44' W 118°16'0 0.0
2016-Jul-15 13:23N 33°44' W 118°16'1 0.4
2016-Jul-15 12:10N 33°44' W 118°15'1 2.0
2016-Jul-15 11:33N 33°43' W 118°15'1 1.4
2016-Jul-15 10:33N 33°44' W 118°16'  
Track history (hours):
 
Tides and Currents Weather Stations Pressure Air Temp Water Temp Dewpoint Dewpoint Depression Visibility Wind Speed Wind Dir Waves Ship Positions

John Quigg

Owner: Harley Marine Services, Inc, Seattle, WA. More information available from US FCC via Universal Licensing System and Coast Guard Vessel Documentation Center.

Last reported at 2016-Jul-25 04:33 UTC. Time now 2016-Jul-25 06:15 UTC.
Position N 33°44' W 118°16'.

Length 27 m.

MMSI: 365934954.

Date/timePositionNaut miles runAvg speedWind from/ knotsBaromVisibWave heightAir tempDewpointWater temp
2016-Jul-25 04:33N 33°44' W 118°16'2 1.5
2016-Jul-25 03:33N 33°43' W 118°14'0 0.0
2016-Jul-25 02:30N 33°43' W 118°14'1 1.2
2016-Jul-25 01:33N 33°44' W 118°15'2 1.8
2016-Jul-25 00:33N 33°45' W 118°16'2 1.8
2016-Jul-24 23:33N 33°43' W 118°16'1 0.6
2016-Jul-24 22:33N 33°44' W 118°16'2 0.8
2016-Jul-24 20:28N 33°43' W 118°14'2 0.3
2016-Jul-24 15:21N 33°44' W 118°16'2 2.1
2016-Jul-24 14:28N 33°44' W 118°13'1 1.1
2016-Jul-24 13:26N 33°43' W 118°14'1 0.5
2016-Jul-24 10:14N 33°44' W 118°16'0 0.0
2016-Jul-24 09:33N 33°44' W 118°16'0 0.0
2016-Jul-24 08:32N 33°44' W 118°16'3 0.7
2016-Jul-24 04:27N 33°44' W 118°12'3 0.7
2016-Jul-24 00:07N 33°44' W 118°16'1 1.5
2016-Jul-23 23:32N 33°44' W 118°17'0 0.4
2016-Jul-23 22:26N 33°44' W 118°16'3 3.3
2016-Jul-23 21:32N 33°44' W 118°13'2 2.1
2016-Jul-23 20:26N 33°43' W 118°16'0 0.4
2016-Jul-23 19:33N 33°44' W 118°16'0 0.0
2016-Jul-23 18:33N 33°44' W 118°16'0 0.0
2016-Jul-23 17:33N 33°44' W 118°16'0 0.1
2016-Jul-23 16:33N 33°44' W 118°16'0 0.3
2016-Jul-23 15:33N 33°44' W 118°16'2 1.7
2016-Jul-23 14:33N 33°45' W 118°16'0 0.0
2016-Jul-23 13:32N 33°45' W 118°16'0 0.1
2016-Jul-23 12:21N 33°45' W 118°16'1 0.6
2016-Jul-23 11:33N 33°45' W 118°16'0 0.0
2016-Jul-23 10:29N 33°45' W 118°16'2 1.7
2016-Jul-23 09:31N 33°44' W 118°16'0 0.1
2016-Jul-23 07:33N 33°44' W 118°16'3 0.7
2016-Jul-23 02:29N 33°44' W 118°12'2 1.6
2016-Jul-23 01:26N 33°45' W 118°13'3 0.4
2016-Jul-22 19:32N 33°44' W 118°16'0 0.1
2016-Jul-22 18:32N 33°44' W 118°16'0 0.0
2016-Jul-22 17:32N 33°44' W 118°16'0 0.0
2016-Jul-22 16:33N 33°44' W 118°16'0 0.0
2016-Jul-22 15:33N 33°44' W 118°16'0 0.0
2016-Jul-22 14:32N 33°44' W 118°16'0 0.0
2016-Jul-22 13:33N 33°44' W 118°16'4 4.0
2016-Jul-22 12:33N 33°44' W 118°11'1 0.5
2016-Jul-22 11:11N 33°43' W 118°11'4 5.7
2016-Jul-22 10:30N 33°43' W 118°16'1 0.9
2016-Jul-22 09:33N 33°44' W 118°17'2 2.3
2016-Jul-22 08:32N 33°46' W 118°15'2 2.0
2016-Jul-22 07:31N 33°45' W 118°13'2 0.8
2016-Jul-22 04:25N 33°44' W 118°16'2 0.8
2016-Jul-22 01:30N 33°45' W 118°13'1 0.9
2016-Jul-22 00:33N 33°44' W 118°12'1 1.2
2016-Jul-21 23:20N 33°43' W 118°14'2 2.1
2016-Jul-21 22:31N 33°44' W 118°16'0 0.0
2016-Jul-21 21:29N 33°44' W 118°16'0 0.0
2016-Jul-21 20:30N 33°44' W 118°16'0 0.0
2016-Jul-21 19:33N 33°44' W 118°16'0 0.0
2016-Jul-21 18:33N 33°44' W 118°16'0 0.0
2016-Jul-21 17:33N 33°44' W 118°16'0 0.0
2016-Jul-21 16:32N 33°44' W 118°16'1 0.6
2016-Jul-21 15:33N 33°44' W 118°15'1 0.7
2016-Jul-21 14:33N 33°44' W 118°16'2 2.3
2016-Jul-21 13:33N 33°46' W 118°15'1 1.1
2016-Jul-21 12:33N 33°46' W 118°13'3 2.3
2016-Jul-21 11:17N 33°44' W 118°12'3 4.5
2016-Jul-21 10:33N 33°44' W 118°16'0 0.0
2016-Jul-21 09:33N 33°44' W 118°16'0 0.0
2016-Jul-21 08:33N 33°44' W 118°16'0 0.0
2016-Jul-21 07:33N 33°44' W 118°16'0 0.0
2016-Jul-21 06:33N 33°44' W 118°16'0 0.0
2016-Jul-21 05:33N 33°44' W 118°16'1 1.2
2016-Jul-21 04:33N 33°43' W 118°15'3 2.7
2016-Jul-21 03:30N 33°45' W 118°12'2 1.4
2016-Jul-21 02:18N 33°47' W 118°13'3 3.3
2016-Jul-21 01:31N 33°46' W 118°16'0 0.1
2016-Jul-21 00:26N 33°45' W 118°16'2 1.9
2016-Jul-20 23:33N 33°44' W 118°16'1 1.3
2016-Jul-20 22:33N 33°43' W 118°15'1 1.3
2016-Jul-20 21:33N 33°44' W 118°16'0 0.0
2016-Jul-20 20:24N 33°44' W 118°16'0 0.0
2016-Jul-20 19:33N 33°44' W 118°16'0 0.0
2016-Jul-20 18:12N 33°44' W 118°16'2 2.4
2016-Jul-20 17:31N 33°44' W 118°14'3 2.5
2016-Jul-20 16:26N 33°46' W 118°13'1 0.9
2016-Jul-20 15:29N 33°45' W 118°13'1 1.3
2016-Jul-20 14:32N 33°46' W 118°15'2 2.4
2016-Jul-20 13:32N 33°44' W 118°16'0 0.1
2016-Jul-20 12:33N 33°44' W 118°16'2 0.6
2016-Jul-20 09:30N 33°46' W 118°15'0 0.1
2016-Jul-20 08:32N 33°46' W 118°16'1 1.4
2016-Jul-20 07:33N 33°45' W 118°16'1 1.0
2016-Jul-20 06:33N 33°44' W 118°16'0 0.0
2016-Jul-20 05:33N 33°44' W 118°16'0 0.0
2016-Jul-20 04:33N 33°44' W 118°16'0 0.0
2016-Jul-20 03:33N 33°44' W 118°16'3 2.7
2016-Jul-20 02:33N 33°44' W 118°12'3 3.3
2016-Jul-20 01:33N 33°45' W 118°16'1 0.8
2016-Jul-20 00:28N 33°46' W 118°16'2 2.7
2016-Jul-19 23:33N 33°43' W 118°16'1 1.1
2016-Jul-19 22:34N 33°43' W 118°15'1 1.4
2016-Jul-19 21:33N 33°44' W 118°16'0 0.0
2016-Jul-19 20:33N 33°44' W 118°16'0 0.0
2016-Jul-19 19:33N 33°44' W 118°16'0 0.0
2016-Jul-19 18:33N 33°44' W 118°16'0 0.0
2016-Jul-19 17:33N 33°44' W 118°16'0 0.0
2016-Jul-19 16:29N 33°44' W 118°16'2 0.5
2016-Jul-19 12:17N 33°45' W 118°14'3 3.8
2016-Jul-19 11:32N 33°43' W 118°11'4 3.9
2016-Jul-19 10:33N 33°44' W 118°16'0 0.0
2016-Jul-19 09:33N 33°44' W 118°16'0 0.0
2016-Jul-19 08:31N 33°44' W 118°16'0 0.0
2016-Jul-19 07:33N 33°44' W 118°16'3 0.6
2016-Jul-19 03:21N 33°45' W 118°13'0 0.0
2016-Jul-19 02:33N 33°45' W 118°13'0 0.0
2016-Jul-19 01:33N 33°45' W 118°13'2 1.8
2016-Jul-19 00:33N 33°44' W 118°11'1 0.5
2016-Jul-18 23:32N 33°44' W 118°12'2 2.2
2016-Jul-18 22:33N 33°43' W 118°14'2 1.6
2016-Jul-18 21:30N 33°44' W 118°12'1 0.7
2016-Jul-18 20:33N 33°44' W 118°12'3 0.4
2016-Jul-18 13:08N 33°44' W 118°16'0 0.0
2016-Jul-18 11:28N 33°44' W 118°16'0 0.0
2016-Jul-18 10:12N 33°44' W 118°16'0 0.0
2016-Jul-18 09:14N 33°44' W 118°16'0 0.0
2016-Jul-18 07:33N 33°44' W 118°16'0 0.0
2016-Jul-18 04:08N 33°44' W 118°16'0 0.0
2016-Jul-18 03:16N 33°44' W 118°16'0 0.0
2016-Jul-18 02:33N 33°44' W 118°16'1 1.1
2016-Jul-18 01:33N 33°45' W 118°16'2 1.1
2016-Jul-17 23:20N 33°43' W 118°14'2 2.4
2016-Jul-17 22:19N 33°45' W 118°13'3 0.3
2016-Jul-17 12:25N 33°43' W 118°16'2 2.0
2016-Jul-17 11:24N 33°45' W 118°16'2 2.6
2016-Jul-17 10:32N 33°43' W 118°15'1 0.1
2016-Jul-17 02:16N 33°43' W 118°14'0 0.4
2016-Jul-17 01:31N 33°43' W 118°14'2 1.7
2016-Jul-17 00:33N 33°44' W 118°16'0 0.0
2016-Jul-16 23:32N 33°44' W 118°16'0 0.0
2016-Jul-16 17:08N 33°44' W 118°16'0 0.0
2016-Jul-16 16:14N 33°44' W 118°16'2 1.8
2016-Jul-16 15:18N 33°43' W 118°14'0 0.1
2016-Jul-16 10:25N 33°43' W 118°14'1 1.6
2016-Jul-16 09:33N 33°44' W 118°16'0 0.0
2016-Jul-16 08:22N 33°44' W 118°16'0 0.0
2016-Jul-16 07:30N 33°44' W 118°16'0 0.0
2016-Jul-16 06:24N 33°44' W 118°16'3 0.9
2016-Jul-16 03:22N 33°45' W 118°13'0 0.0
2016-Jul-16 02:31N 33°45' W 118°13'1 0.9
2016-Jul-16 01:32N 33°44' W 118°14'2 1.9
2016-Jul-16 00:33N 33°44' W 118°16'0 0.0
2016-Jul-15 22:31N 33°44' W 118°16'0 0.0
2016-Jul-15 13:23N 33°44' W 118°16'1 0.4
2016-Jul-15 12:10N 33°44' W 118°15'1 2.0
2016-Jul-15 11:33N 33°43' W 118°15'1 1.4
2016-Jul-15 10:33N 33°44' W 118°16'  

Dump ship's entire track history